Proserpine Hamilton Isla, Australia

7:31 PM AEST on March 26, 2017 (GMT +1000)
Hamilton Island | | Change Station

Elev 56 ft 20.35 °S, 148.95 °E | Updated 17 minutes ago

Overcast
Overcast
79 °F
Feels Like 79 °F
N
37
Wind Variable Wind from South
Gusts 48 mph

Today
High -- | Low -- °F
--% Chance of Precip.
Yesterday
High -- | Low -- °F
Precip. -- in
Pressure 29.68 in
Visibility 4.3 miles
Clouds Mostly Cloudy 1100 ft
Overcast 1900 ft
Dew Point 77 °F
Humidity 94%
Rainfall 0.00 in
Snow Depth Not available.
6:09 AM 6:09 PM
Waning Crescent, 4% visible
SPECI YBHM 260914Z AUTO 17032G42KT 7000 // BKN011 OVC019 26/25 Q1005
Pressure 29.68 in
Visibility 4.3 miles
Clouds Mostly Cloudy 1100 ft
Overcast 1900 ft
Dew Point 77 °F
Humidity 94%
Rainfall 0.00 in
Snow Depth Not available.
6:09 AM 6:09 PM
Waning Crescent, 4% visible
SPECI YBHM 260914Z AUTO 17032G42KT 7000 // BKN011 OVC019 26/25 Q1005

Get Severe Weather Alerts

Thanks for signing up!

Be on the lookout for a verification email in your inbox.

You'll start receiving the daily forecast at 8 AM.

×

10-Day Weather Forecast

×

Almanac

Astronomy

Mar. 26, 2017 Rise Set
Actual Time
Civil Twilight
Nautical Twilight
Astronomical Twilight
Moon
Length of Visible Light
Length of Day
Tomorrow will be .
, % of the Moon is Illuminated

Today's Extremes

Country Highs Country Lows

Community

WunderPhotos

Upload Photos

1,962,540 photos uploaded!

WunderBlog® & News

Nearby

Air Quality

  Air Quality AQ Index Pollutant
Not available.

Snow Depth

Station Depth Elevation

Earthquake Activity

City Distance Mag. Time & Date
Minimum magnitude displayed is 2.5.

Earthquake Activity

City Distance Mag. Time & Date
Minimum magnitude displayed is 2.5.

Coastal Water Temperatures

Place Temperature

Stations

Nearby Weather Stations

Station Location Temp. Windchill Dew Point Humidity Wind Precip. Elev Updated Type